Time;durP1;ratioP1;P1;durP2;ratioP2;P2;SDS_P1;SDS_P2;PMS_P1;PMS_P2;Temp;Humidity;BMP_temperature;BMP_pressure;BME280_temperature;BME280_humidity;BME280_pressure;Samples;Min_cycle;Max_cycle;Signal;HPM_P1;HPM_P2
2023/10/18 00:02:53;;;;;;;2.17;1.40;;;8.70;99.90;;;;;;5036918;28;20251;-72
2023/10/18 00:05:21;;;;;;;1.93;1.60;;;8.60;99.90;;;;;;5001515;28;20228;-71
2023/10/18 00:07:48;;;;;;;2.30;1.50;;;8.60;99.90;;;;;;5005884;28;20208;-73
2023/10/18 00:10:17;;;;;;;1.90;1.70;;;8.60;99.90;;;;;;5000156;28;20178;-70
2023/10/18 00:12:46;;;;;;;1.93;1.50;;;8.60;99.90;;;;;;5001221;28;20171;-70
2023/10/18 00:15:12;;;;;;;2.40;1.53;;;8.60;99.90;;;;;;4992823;28;20330;-71
2023/10/18 00:17:38;;;;;;;2.73;1.70;;;8.50;99.90;;;;;;4982342;28;20202;-71
2023/10/18 00:20:13;;;;;;;2.07;1.50;;;8.50;99.90;;;;;;4991572;28;20180;-72
2023/10/18 00:22:42;;;;;;;1.90;1.60;;;8.50;99.90;;;;;;5000877;28;20296;-72
2023/10/18 00:25:11;;;;;;;2.03;1.60;;;8.50;99.90;;;;;;5001337;28;20181;-72
2023/10/18 00:27:46;;;;;;;1.80;1.47;;;8.50;99.90;;;;;;4989206;28;20204;-71
2023/10/18 00:30:11;;;;;;;2.33;1.50;;;8.50;99.90;;;;;;4994728;28;20230;-72
2023/10/18 00:32:38;;;;;;;3.53;1.60;;;8.50;99.90;;;;;;5001224;28;20183;-72
2023/10/18 00:35:21;;;;;;;1.63;1.40;;;8.50;99.90;;;;;;5001521;28;20186;-71
2023/10/18 00:37:48;;;;;;;1.67;1.37;;;8.40;99.90;;;;;;5001243;28;20201;-72
2023/10/18 00:43:20;;;;;;;2.17;1.53;;;8.40;99.90;;;;;;4982700;28;20211;-71
2023/10/18 00:45:47;;;;;;;2.53;1.40;;;8.40;99.90;;;;;;5000552;28;20230;-71
2023/10/18 00:48:14;;;;;;;2.40;1.50;;;8.30;99.90;;;;;;5000968;28;20171;-72
2023/10/18 00:50:45;;;;;;;2.30;1.67;;;8.30;99.90;;;;;;5000939;28;20178;-71
2023/10/18 00:53:20;;;;;;;2.57;1.87;;;8.30;99.90;;;;;;4996199;28;20203;-71
2023/10/18 00:56:00;;;;;;;2.00;1.30;;;8.30;99.90;;;;;;4980901;28;20178;-72
2023/10/18 00:58:29;;;;;;;2.23;1.50;;;8.40;99.90;;;;;;4996940;28;20182;-71
2023/10/18 01:00:56;;;;;;;2.07;1.67;;;8.30;99.90;;;;;;5000401;28;20265;-71
2023/10/18 01:04:02;;;;;;;2.20;1.47;;;8.30;99.90;;;;;;4996999;28;20179;-71
2023/10/18 01:06:21;;;;;;;2.53;1.60;;;8.20;99.90;;;;;;5007689;28;20214;-72
2023/10/18 01:08:48;;;;;;;1.57;1.33;;;8.20;99.90;;;;;;5000417;28;20178;-72
2023/10/18 01:11:15;;;;;;;2.07;1.37;;;8.20;99.90;;;;;;5000768;28;20179;-72
2023/10/18 01:13:47;;;;;;;1.97;1.47;;;8.20;99.90;;;;;;4997160;28;20191;-72
2023/10/18 01:16:21;;;;;;;2.00;1.33;;;8.20;99.90;;;;;;5015845;28;20185;-72
2023/10/18 01:18:54;;;;;;;1.53;1.23;;;8.20;99.90;;;;;;4999532;28;20238;-71
2023/10/18 01:21:21;;;;;;;1.90;1.40;;;8.10;99.90;;;;;;4998890;28;20194;-72
2023/10/18 01:23:54;;;;;;;1.83;1.43;;;8.10;99.90;;;;;;5000482;28;20171;-72
2023/10/18 01:26:23;;;;;;;1.60;1.50;;;8.10;99.90;;;;;;4999419;28;20213;-70
2023/10/18 01:28:51;;;;;;;1.77;1.50;;;8.10;99.90;;;;;;4999991;28;20185;-71
2023/10/18 01:31:17;;;;;;;1.93;1.43;;;8.10;99.90;;;;;;4997601;28;20178;-71
2023/10/18 01:33:47;;;;;;;2.63;1.33;;;8.10;99.90;;;;;;4993428;28;20329;-71
2023/10/18 01:36:18;;;;;;;3.67;1.60;;;8.00;99.90;;;;;;4997811;28;20246;-72
2023/10/18 01:38:54;;;;;;;2.33;1.60;;;8.00;99.90;;;;;;4997160;28;20202;-72
2023/10/18 01:41:25;;;;;;;2.03;1.63;;;8.10;99.90;;;;;;4999680;28;20198;-71
2023/10/18 01:44:07;;;;;;;1.70;1.47;;;8.00;99.90;;;;;;4996503;28;20186;-71
2023/10/18 01:46:48;;;;;;;2.20;1.80;;;8.00;99.90;;;;;;4999512;28;20170;-72
2023/10/18 01:49:19;;;;;;;1.93;1.67;;;8.00;99.90;;;;;;4999119;28;20171;-71
2023/10/18 01:51:51;;;;;;;1.70;1.50;;;7.90;99.90;;;;;;5002124;28;20213;-71
2023/10/18 01:54:18;;;;;;;2.60;1.50;;;7.90;99.90;;;;;;4997231;28;20178;-71
2023/10/18 01:56:53;;;;;;;7.80;1.77;;;7.90;99.90;;;;;;4998979;28;20182;-72
2023/10/18 01:59:19;;;;;;;3.00;1.67;;;7.80;99.90;;;;;;4992730;28;20202;-71
2023/10/18 02:01:45;;;;;;;2.50;1.60;;;7.80;99.90;;;;;;4993582;28;20282;-72
2023/10/18 02:04:24;;;;;;;1.87;1.63;;;7.80;99.90;;;;;;5014983;28;20185;-71
2023/10/18 02:06:53;;;;;;;3.37;1.83;;;7.80;99.90;;;;;;4995520;28;20205;-69
2023/10/18 02:09:21;;;;;;;2.03;1.47;;;7.80;99.90;;;;;;4979705;28;20209;-71
2023/10/18 02:11:46;;;;;;;2.73;1.50;;;7.80;99.90;;;;;;4993463;28;20199;-71
2023/10/18 02:14:17;;;;;;;2.03;1.50;;;7.90;99.90;;;;;;4999237;28;20186;-71
2023/10/18 02:16:45;;;;;;;2.30;1.70;;;7.90;99.90;;;;;;4998620;28;20178;-72
2023/10/18 02:19:13;;;;;;;1.83;1.60;;;7.90;99.90;;;;;;4998066;28;20198;-71
2023/10/18 02:21:40;;;;;;;2.23;1.50;;;7.90;99.90;;;;;;4996158;28;20300;-71
2023/10/18 02:24:07;;;;;;;2.37;1.40;;;7.90;99.90;;;;;;4993571;28;20185;-71
2023/10/18 02:26:33;;;;;;;3.60;1.40;;;7.90;99.90;;;;;;4996502;28;20203;-72
2023/10/18 02:29:35;;;;;;;2.73;1.43;;;7.90;99.90;;;;;;4998041;28;20178;-72
2023/10/18 02:32:04;;;;;;;1.90;1.50;;;8.00;99.90;;;;;;4991975;28;20202;-70
2023/10/18 02:34:38;;;;;;;1.87;1.50;;;8.00;99.90;;;;;;5011541;28;20185;-72
2023/10/18 02:37:07;;;;;;;2.40;1.47;;;8.00;99.90;;;;;;4999391;28;20258;-72
2023/10/18 02:39:35;;;;;;;1.70;1.60;;;8.00;99.90;;;;;;4983678;28;20183;-72
2023/10/18 02:42:04;;;;;;;2.20;1.50;;;8.00;99.90;;;;;;4988546;28;20302;-72
2023/10/18 02:44:33;;;;;;;1.90;1.50;;;8.00;99.90;;;;;;4997700;28;20190;-71
2023/10/18 02:47:10;;;;;;;1.53;1.43;;;8.00;99.90;;;;;;4999227;28;20202;-72
2023/10/18 02:49:35;;;;;;;2.70;1.50;;;8.00;99.90;;;;;;4999367;28;20185;-72
2023/10/18 02:52:03;;;;;;;2.03;1.50;;;7.90;99.90;;;;;;4998856;28;20281;-72
2023/10/18 02:54:32;;;;;;;1.73;1.50;;;7.90;99.90;;;;;;4999228;28;20174;-72
2023/10/18 02:56:59;;;;;;;2.23;1.50;;;7.90;99.90;;;;;;4998383;28;20179;-72
2023/10/18 02:59:26;;;;;;;1.57;1.30;;;7.90;99.90;;;;;;4998902;28;20182;-72
2023/10/18 03:02:00;;;;;;;1.63;1.53;;;7.90;99.90;;;;;;4998099;28;20194;-71
2023/10/18 03:04:34;;;;;;;2.00;1.53;;;8.00;99.90;;;;;;4997775;28;20198;-71
2023/10/18 03:06:59;;;;;;;1.97;1.30;;;7.80;99.90;;;;;;4994764;28;20214;-72
2023/10/18 03:12:02;;;;;;;2.10;1.50;;;7.80;99.90;;;;;;5001478;28;20162;-72
2023/10/18 03:14:39;;;;;;;2.30;1.60;;;7.80;99.90;;;;;;4998430;28;20210;-69
2023/10/18 03:17:34;;;;;;;1.73;1.43;;;7.80;99.90;;;;;;4986942;28;20264;-71
2023/10/18 03:20:16;;;;;;;2.07;1.50;;;7.80;99.90;;;;;;5016267;28;20174;-71
2023/10/18 03:22:44;;;;;;;1.87;1.50;;;7.70;99.90;;;;;;4995984;28;20218;-72
2023/10/18 03:25:16;;;;;;;1.60;1.40;;;7.70;99.90;;;;;;4998995;28;20167;-72
2023/10/18 03:27:50;;;;;;;2.80;1.67;;;7.70;99.90;;;;;;5010267;28;20185;-71
2023/10/18 03:30:19;;;;;;;2.27;1.50;;;7.80;99.90;;;;;;5002113;28;20206;-71
2023/10/18 03:32:49;;;;;;;2.80;1.43;;;7.70;99.90;;;;;;5002435;28;20189;-72
2023/10/18 03:35:20;;;;;;;2.77;1.63;;;7.70;99.90;;;;;;4997857;28;20189;-71
2023/10/18 03:37:46;;;;;;;1.87;1.60;;;7.80;99.90;;;;;;5001172;28;20198;-72
2023/10/18 03:40:20;;;;;;;1.60;1.43;;;7.80;99.90;;;;;;4983784;28;20171;-71
2023/10/18 03:42:46;;;;;;;2.83;1.77;;;7.70;99.90;;;;;;5001492;28;20229;-71
2023/10/18 03:45:13;;;;;;;2.10;1.67;;;7.80;99.90;;;;;;5002036;28;20185;-72
2023/10/18 03:47:41;;;;;;;2.37;1.60;;;7.80;99.90;;;;;;4999289;28;20567;-71
2023/10/18 03:50:15;;;;;;;2.17;1.50;;;7.80;99.90;;;;;;4994027;28;20171;-71
2023/10/18 03:52:45;;;;;;;2.00;1.60;;;7.80;99.90;;;;;;4999679;28;20182;-72
2023/10/18 03:55:16;;;;;;;2.40;1.80;;;7.80;99.90;;;;;;4999932;28;20217;-72
2023/10/18 03:57:42;;;;;;;1.87;1.70;;;7.80;99.90;;;;;;4987405;28;20195;-72
2023/10/18 04:02:53;;;;;;;2.70;1.93;;;7.80;99.90;;;;;;5017887;28;20210;-70
2023/10/18 04:05:41;;;;;;;2.07;1.60;;;7.90;99.90;;;;;;5001426;28;20179;-72
2023/10/18 04:08:08;;;;;;;1.87;1.63;;;7.80;99.90;;;;;;5011480;28;20190;-72
2023/10/18 04:10:36;;;;;;;2.47;1.80;;;7.90;99.90;;;;;;5001618;28;20194;-72
2023/10/18 04:13:10;;;;;;;2.47;1.70;;;7.90;99.90;;;;;;5000738;28;20202;-70
2023/10/18 04:15:39;;;;;;;2.00;1.80;;;7.90;99.90;;;;;;5001040;28;20190;-69
2023/10/18 04:20:40;;;;;;;1.97;1.77;;;7.90;99.90;;;;;;5017840;28;20178;-72
2023/10/18 04:23:18;;;;;;;1.83;1.63;;;7.90;99.90;;;;;;5000390;28;20218;-69
2023/10/18 04:28:30;;;;;;;2.10;1.90;;;7.90;99.90;;;;;;5005656;28;20312;-71
2023/10/18 04:31:01;;;;;;;3.50;2.30;;;8.00;99.90;;;;;;4999328;28;20258;-70
2023/10/18 04:36:14;;;;;;;2.77;1.90;;;8.00;99.90;;;;;;5017585;28;20201;-73
2023/10/18 04:38:44;;;;;;;2.20;1.77;;;7.90;99.90;;;;;;4999610;28;20273;-70
2023/10/18 04:41:23;;;;;;;2.93;1.90;;;7.90;99.90;;;;;;4986516;28;20179;-71
2023/10/18 04:44:17;;;;;;;2.00;1.60;;;8.00;99.90;;;;;;4986785;28;20194;-71
2023/10/18 04:46:48;;;;;;;2.40;1.70;;;8.10;99.90;;;;;;5000204;28;20179;-71
2023/10/18 04:54:16;;;;;;;3.87;2.07;;;8.00;99.90;;;;;;5013586;28;20178;-72
2023/10/18 04:56:45;;;;;;;2.90;2.00;;;8.00;99.90;;;;;;4999925;28;20224;-71
2023/10/18 05:01:56;;;;;;;2.97;2.00;;;7.90;99.90;;;;;;5017874;28;20198;-65
2023/10/18 05:04:32;;;;;;;5.33;2.10;;;8.00;99.90;;;;;;4980851;28;20199;-65
2023/10/18 05:07:04;;;;;;;2.43;2.10;;;8.00;99.90;;;;;;4980339;28;20190;-64
2023/10/18 05:17:26;;;;;;;3.57;2.20;;;8.10;99.90;;;;;;5009888;28;20289;-65
2023/10/18 05:19:56;;;;;;;2.47;2.20;;;8.10;99.90;;;;;;4989425;28;20256;-65
2023/10/18 05:22:25;;;;;;;2.80;2.17;;;8.10;99.90;;;;;;4985696;28;20517;-64
2023/10/18 05:24:55;;;;;;;3.40;1.93;;;8.10;99.90;;;;;;4994820;28;20269;-64
2023/10/18 05:27:27;;;;;;;2.57;2.03;;;8.10;99.90;;;;;;4998568;28;20171;-65
2023/10/18 05:29:59;;;;;;;3.03;2.40;;;8.10;99.90;;;;;;4995330;28;20213;-65
2023/10/18 05:35:21;;;;;;;3.60;2.40;;;8.20;99.90;;;;;;5017091;28;20170;-65
2023/10/18 05:37:50;;;;;;;2.70;2.13;;;8.20;99.90;;;;;;5005670;28;20204;-65
2023/10/18 05:43:22;;;;;;;3.40;2.70;;;8.30;99.90;;;;;;5027288;28;20190;-65
2023/10/18 05:45:48;;;;;;;3.70;2.90;;;8.30;99.90;;;;;;4990913;28;20179;-65
2023/10/18 05:48:22;;;;;;;3.73;2.80;;;8.40;99.90;;;;;;4980796;28;20222;-64
2023/10/18 05:51:03;;;;;;;4.90;3.17;;;8.40;99.90;;;;;;4993696;28;20187;-64
2023/10/18 05:53:30;;;;;;;4.03;3.30;;;8.50;99.90;;;;;;4991349;28;20191;-67
2023/10/18 05:55:57;;;;;;;3.50;3.17;;;8.50;99.90;;;;;;4991232;28;20175;-65
2023/10/18 05:58:27;;;;;;;4.13;3.33;;;8.50;99.90;;;;;;4998202;28;20308;-65
2023/10/18 06:00:55;;;;;;;5.17;2.60;;;8.60;99.90;;;;;;4990460;28;20190;-66
2023/10/18 06:03:22;;;;;;;3.30;2.77;;;8.50;99.90;;;;;;4990055;28;20190;-66
2023/10/18 06:05:51;;;;;;;3.83;2.90;;;8.60;99.90;;;;;;4989066;28;20257;-65
2023/10/18 06:08:22;;;;;;;4.33;2.80;;;8.60;99.90;;;;;;4998978;28;20182;-66
2023/10/18 06:11:01;;;;;;;4.73;3.23;;;8.60;99.90;;;;;;4999480;28;20179;-65
2023/10/18 06:13:29;;;;;;;5.63;3.23;;;8.60;99.90;;;;;;5002851;28;20258;-65
2023/10/18 06:16:02;;;;;;;4.80;2.80;;;8.70;99.90;;;;;;4984976;28;20182;-66
2023/10/18 06:18:37;;;;;;;4.27;3.10;;;8.70;99.90;;;;;;4999050;28;20218;-66
2023/10/18 06:21:11;;;;;;;4.33;2.70;;;8.70;99.90;;;;;;4997462;28;20190;-65
2023/10/18 06:23:41;;;;;;;4.27;2.97;;;8.70;99.90;;;;;;4989332;28;20178;-65
2023/10/18 06:28:53;;;;;;;3.40;2.60;;;8.70;99.90;;;;;;5006998;28;20209;-65
2023/10/18 06:31:21;;;;;;;3.20;2.57;;;8.70;99.90;;;;;;4998745;28;20210;-66
2023/10/18 06:33:51;;;;;;;3.53;2.40;;;8.80;99.90;;;;;;4999159;28;20261;-65
2023/10/18 06:36:21;;;;;;;3.70;2.80;;;8.90;99.90;;;;;;5000556;28;20194;-64
2023/10/18 06:38:50;;;;;;;2.57;2.30;;;8.80;99.90;;;;;;4989997;28;20179;-65
2023/10/18 06:41:19;;;;;;;2.50;2.30;;;8.80;99.90;;;;;;4998768;28;20174;-64
2023/10/18 06:43:52;;;;;;;3.70;2.73;;;8.90;99.90;;;;;;4999044;28;20171;-65
2023/10/18 06:46:29;;;;;;;2.50;2.10;;;8.80;99.90;;;;;;4997700;28;20176;-63
2023/10/18 06:48:58;;;;;;;3.40;2.40;;;8.90;99.90;;;;;;4999134;28;20201;-63
2023/10/18 06:51:33;;;;;;;3.70;3.00;;;8.90;99.90;;;;;;4999065;28;20233;-63
2023/10/18 06:54:13;;;;;;;2.87;2.50;;;9.00;99.90;;;;;;4997960;28;20177;-65
2023/10/18 06:56:39;;;;;;;4.20;3.23;;;9.00;99.90;;;;;;4989949;28;20179;-62
2023/10/18 06:59:09;;;;;;;3.70;2.87;;;9.10;99.90;;;;;;4991396;28;20178;-64
2023/10/18 07:01:41;;;;;;;3.90;3.00;;;9.00;99.90;;;;;;4987359;28;20215;-62
2023/10/18 07:04:35;;;;;;;5.70;2.90;;;9.10;99.90;;;;;;4979666;28;20195;-63
2023/10/18 07:07:08;;;;;;;3.63;3.00;;;9.10;99.90;;;;;;4979262;28;20294;-63
2023/10/18 07:09:36;;;;;;;4.30;2.83;;;9.20;99.90;;;;;;4989184;28;20178;-63
2023/10/18 07:12:10;;;;;;;4.47;2.80;;;9.20;99.90;;;;;;4998612;28;20186;-63
2023/10/18 07:14:36;;;;;;;3.50;2.87;;;9.20;99.90;;;;;;4996194;28;20235;-64
2023/10/18 07:17:04;;;;;;;3.27;2.80;;;9.20;99.90;;;;;;4998579;28;20185;-63
2023/10/18 07:19:33;;;;;;;5.50;3.23;;;9.30;99.90;;;;;;4994713;28;20230;-64
2023/10/18 07:22:04;;;;;;;3.03;2.73;;;9.30;99.90;;;;;;4996211;28;20210;-63
2023/10/18 07:24:36;;;;;;;3.73;2.93;;;9.40;99.90;;;;;;4999018;28;20182;-63
2023/10/18 07:27:09;;;;;;;3.53;2.87;;;9.40;99.90;;;;;;5002060;28;20181;-64
2023/10/18 07:29:46;;;;;;;4.50;3.00;;;9.40;99.90;;;;;;5005342;28;20202;-64
2023/10/18 07:32:14;;;;;;;3.57;2.70;;;9.50;99.90;;;;;;4997503;28;20209;-64
2023/10/18 07:34:42;;;;;;;3.43;2.67;;;9.50;99.90;;;;;;5001122;28;20182;-64
2023/10/18 07:37:51;;;;;;;3.07;2.63;;;9.50;99.90;;;;;;4997357;28;20267;-63
2023/10/18 07:40:10;;;;;;;3.40;2.90;;;9.60;99.90;;;;;;4991090;28;20183;-63
2023/10/18 07:42:41;;;;;;;3.53;2.90;;;9.60;99.90;;;;;;4992677;28;20194;-63
2023/10/18 07:45:15;;;;;;;5.18;3.55;;;9.60;99.90;;;;;;4994339;28;20182;-64
2023/10/18 07:47:42;;;;;;;3.60;3.03;;;9.70;99.90;;;;;;4980012;28;20226;-63
2023/10/18 07:52:56;;;;;;;3.95;2.75;;;9.80;99.90;;;;;;5014014;28;20281;-62
2023/10/18 07:55:27;;;;;;;4.88;2.78;;;9.80;99.90;;;;;;4998063;28;20228;-63
2023/10/18 07:57:55;;;;;;;4.03;2.83;;;9.90;99.90;;;;;;4997624;28;20269;-62
2023/10/18 08:00:21;;;;;;;3.50;2.85;;;10.00;99.90;;;;;;4998103;28;20183;-63
2023/10/18 08:02:49;;;;;;;3.00;2.70;;;10.00;99.90;;;;;;4997645;28;20235;-63
2023/10/18 08:05:24;;;;;;;3.30;2.83;;;10.10;99.90;;;;;;4992759;28;20267;-63
2023/10/18 08:07:51;;;;;;;3.45;2.80;;;10.10;99.90;;;;;;5000915;28;20241;-63
2023/10/18 08:10:19;;;;;;;4.15;3.08;;;10.30;99.90;;;;;;5009263;28;20171;-63
2023/10/18 08:12:49;;;;;;;4.05;3.10;;;10.30;99.90;;;;;;4996072;28;20206;-63
2023/10/18 08:15:18;;;;;;;3.88;3.40;;;10.30;99.90;;;;;;4982323;28;20265;-62
2023/10/18 08:17:49;;;;;;;5.55;3.20;;;10.40;99.90;;;;;;4989808;28;20191;-63
2023/10/18 08:21:06;;;;;;;3.95;3.10;;;10.40;99.90;;;;;;5000844;28;20202;-63
2023/10/18 08:23:34;;;;;;;5.13;3.55;;;10.50;99.90;;;;;;5005006;28;20211;-63
2023/10/18 08:26:03;;;;;;;8.07;5.70;;;10.60;99.90;;;;;;5000051;28;21718;-62
2023/10/18 08:28:38;;;;;;;5.60;4.20;;;10.60;99.90;;;;;;4982286;28;20190;-63
2023/10/18 08:31:29;;;;;;;4.80;3.80;;;10.70;99.90;;;;;;4984364;28;20186;-62
2023/10/18 08:33:56;;;;;;;4.45;3.70;;;10.80;99.90;;;;;;5013486;28;20257;-63
2023/10/18 08:36:30;;;;;;;5.40;3.30;;;10.90;99.90;;;;;;5017551;28;20187;-63
2023/10/18 08:38:57;;;;;;;5.30;3.67;;;11.00;99.90;;;;;;5002015;28;20185;-63
2023/10/18 08:41:31;;;;;;;5.75;3.30;;;11.10;99.90;;;;;;4982823;28;20179;-62
2023/10/18 08:44:08;;;;;;;4.07;3.40;;;11.30;99.90;;;;;;4993730;28;20186;-64
2023/10/18 08:46:41;;;;;;;5.45;3.50;;;11.20;99.90;;;;;;5015755;28;20205;-63
2023/10/18 08:49:08;;;;;;;4.15;3.40;;;11.30;99.90;;;;;;5000132;28;20178;-63
2023/10/18 08:51:37;;;;;;;4.10;3.53;;;11.40;99.90;;;;;;4992893;28;20178;-63
2023/10/18 08:54:09;;;;;;;4.95;3.60;;;11.50;99.90;;;;;;4998795;28;20273;-63
2023/10/18 08:56:35;;;;;;;4.65;3.83;;;11.60;99.90;;;;;;4999192;28;20210;-63
2023/10/18 08:59:10;;;;;;;6.38;3.80;;;11.70;99.90;;;;;;4996324;28;20242;-63
2023/10/18 09:01:36;;;;;;;3.88;3.38;;;11.80;99.90;;;;;;5000360;28;20336;-63
2023/10/18 09:04:07;;;;;;;4.80;4.03;;;11.90;99.90;;;;;;5000595;28;20183;-63
2023/10/18 09:06:33;;;;;;;4.57;3.33;;;11.90;99.90;;;;;;4999239;28;20276;-63
2023/10/18 09:09:07;;;;;;;4.35;3.53;;;12.00;99.90;;;;;;5000960;28;20202;-63
2023/10/18 09:11:36;;;;;;;4.63;3.60;;;12.00;99.90;;;;;;5000804;28;20166;-63
2023/10/18 09:16:45;;;;;;;4.88;3.67;;;12.30;99.90;;;;;;5007698;28;20183;-63
2023/10/18 09:19:13;;;;;;;4.70;3.88;;;12.50;99.90;;;;;;4988862;28;20202;-63
2023/10/18 09:21:57;;;;;;;4.88;3.63;;;12.60;99.90;;;;;;5000439;28;20210;-63
2023/10/18 09:24:30;;;;;;;5.10;3.85;;;12.80;99.90;;;;;;4999637;28;20175;-63
2023/10/18 09:26:58;;;;;;;6.15;3.83;;;12.80;99.90;;;;;;4996812;28;20210;-63
2023/10/18 09:29:26;;;;;;;4.30;3.40;;;12.80;99.90;;;;;;4983041;28;20171;-63
2023/10/18 09:32:01;;;;;;;6.30;3.60;;;12.80;99.90;;;;;;4980774;28;20234;-63
2023/10/18 09:34:49;;;;;;;4.03;3.35;;;13.00;99.90;;;;;;4980517;28;20229;-64
2023/10/18 09:37:27;;;;;;;4.15;3.53;;;13.30;99.90;;;;;;5005859;28;20218;-63
2023/10/18 09:39:56;;;;;;;4.22;3.25;;;13.80;99.90;;;;;;4995515;28;20203;-64
2023/10/18 09:42:22;;;;;;;4.22;3.60;;;14.30;99.90;;;;;;4980772;28;20218;-65
2023/10/18 09:44:51;;;;;;;6.03;4.70;;;14.70;99.90;;;;;;4995202;28;20174;-63
2023/10/18 09:47:17;;;;;;;4.32;3.88;;;15.20;99.90;;;;;;4985476;28;20266;-64
2023/10/18 09:49:45;;;;;;;4.63;3.72;;;15.50;99.90;;;;;;5011734;28;20182;-64
2023/10/18 09:52:14;;;;;;;4.30;3.47;;;15.80;99.90;;;;;;5010854;28;20252;-65
2023/10/18 09:54:50;;;;;;;4.55;3.67;;;16.00;99.90;;;;;;5000445;28;20174;-64
2023/10/18 09:57:35;;;;;;;4.25;3.55;;;16.30;99.90;;;;;;4999962;28;20174;-64
2023/10/18 10:00:11;;;;;;;5.05;3.50;;;16.40;99.90;;;;;;4999761;28;20173;-65
2023/10/18 10:02:41;;;;;;;4.63;3.10;;;16.60;99.90;;;;;;4999491;28;20206;-65
2023/10/18 10:05:12;;;;;;;4.50;3.20;;;16.80;99.90;;;;;;4998340;28;20195;-64
2023/10/18 10:07:50;;;;;;;3.70;3.15;;;17.00;99.90;;;;;;4998860;28;20221;-64
2023/10/18 10:10:23;;;;;;;4.55;3.03;;;17.20;99.90;;;;;;4999307;28;20181;-64
2023/10/18 10:12:57;;;;;;;3.63;3.10;;;17.40;99.90;;;;;;4999415;28;20186;-63
2023/10/18 10:15:28;;;;;;;4.28;2.95;;;17.60;99.90;;;;;;5019974;28;20194;-63
2023/10/18 10:18:00;;;;;;;6.63;4.68;;;17.70;99.90;;;;;;5000299;28;20213;-65
2023/10/18 10:20:32;;;;;;;4.43;3.30;;;17.90;99.90;;;;;;5010233;28;20166;-62
2023/10/18 10:23:06;;;;;;;4.03;3.05;;;17.90;99.90;;;;;;4997739;28;20260;-62
2023/10/18 10:25:34;;;;;;;3.50;2.90;;;17.90;99.90;;;;;;4996453;28;20163;-64
2023/10/18 10:28:13;;;;;;;4.00;3.00;;;17.90;99.90;;;;;;4986275;28;20286;-63
2023/10/18 10:30:43;;;;;;;4.40;3.28;;;17.80;99.90;;;;;;4997000;28;20198;-62
2023/10/18 10:33:15;;;;;;;2.90;2.60;;;17.80;99.90;;;;;;4987161;28;20202;-63
2023/10/18 10:35:44;;;;;;;3.15;2.47;;;17.80;99.90;;;;;;4984105;28;20258;-63
2023/10/18 10:38:18;;;;;;;4.38;3.03;;;17.90;99.90;;;;;;4992201;28;20214;-64
2023/10/18 10:41:13;;;;;;;4.43;2.85;;;18.00;99.90;;;;;;4997630;28;20241;-63
2023/10/18 10:44:06;;;;;;;3.95;3.05;;;18.10;99.90;;;;;;5010223;28;20196;-63
2023/10/18 10:46:39;;;;;;;2.92;2.60;;;18.20;99.90;;;;;;4995630;28;20175;-65
2023/10/18 10:49:49;;;;;;;3.75;2.60;;;18.30;99.90;;;;;;4992480;28;20190;-65
2023/10/18 10:52:20;;;;;;;2.53;2.22;;;18.20;99.90;;;;;;4997779;28;20202;-64
2023/10/18 10:54:53;;;;;;;3.08;2.25;;;18.20;99.90;;;;;;4997873;28;20206;-62
2023/10/18 10:57:21;;;;;;;2.97;2.40;;;18.10;99.90;;;;;;4988286;28;20179;-64
2023/10/18 10:59:55;;;;;;;3.17;1.88;;;18.10;99.90;;;;;;4997569;28;20198;-66
2023/10/18 11:02:45;;;;;;;2.90;2.53;;;18.10;99.90;;;;;;4995672;28;20198;-65
2023/10/18 11:05:16;;;;;;;3.22;2.47;;;18.20;99.90;;;;;;4998547;28;20198;-65
2023/10/18 11:07:43;;;;;;;3.58;2.50;;;18.20;99.90;;;;;;4998100;28;20271;-63
2023/10/18 11:10:15;;;;;;;3.80;2.40;;;18.20;99.90;;;;;;4994735;28;20179;-65
2023/10/18 11:12:45;;;;;;;4.07;2.60;;;18.10;99.90;;;;;;4986022;28;20202;-64
2023/10/18 11:15:16;;;;;;;3.35;2.50;;;18.20;99.90;;;;;;4986307;28;20183;-64
2023/10/18 11:17:48;;;;;;;3.17;2.40;;;18.20;99.90;;;;;;4978781;28;20179;-64
2023/10/18 11:20:19;;;;;;;3.42;2.30;;;18.20;99.90;;;;;;4998027;28;20193;-64
2023/10/18 11:22:50;;;;;;;2.70;2.33;;;18.20;99.90;;;;;;4983055;28;20257;-65
2023/10/18 11:25:21;;;;;;;2.75;2.13;;;18.20;99.90;;;;;;4995749;28;20218;-67
2023/10/18 11:27:47;;;;;;;3.10;2.13;;;18.20;99.90;;;;;;4997585;28;20171;-65
2023/10/18 11:30:16;;;;;;;3.08;2.50;;;18.20;99.90;;;;;;5004461;28;20194;-66
2023/10/18 11:32:49;;;;;;;4.38;2.67;;;18.20;99.90;;;;;;4998415;28;20186;-65
2023/10/18 11:35:26;;;;;;;3.08;2.42;;;18.30;99.90;;;;;;4992999;28;20183;-65
2023/10/18 11:37:52;;;;;;;3.00;2.20;;;18.20;99.90;;;;;;4993560;28;20221;-66
2023/10/18 11:40:21;;;;;;;3.83;2.28;;;18.20;99.90;;;;;;4996055;28;20186;-65
2023/10/18 11:43:08;;;;;;;3.08;2.47;;;18.20;99.90;;;;;;5001933;28;20206;-64
2023/10/18 11:45:36;;;;;;;3.53;2.58;;;18.00;99.90;;;;;;4998493;28;20195;-64
2023/10/18 11:48:09;;;;;;;3.67;2.35;;;17.90;99.90;;;;;;5002086;28;20217;-65
2023/10/18 11:50:40;;;;;;;3.40;2.15;;;17.90;99.90;;;;;;4997550;28;20239;-64
2023/10/18 11:53:14;;;;;;;4.07;2.45;;;17.90;99.90;;;;;;5001932;28;20181;-66
2023/10/18 11:55:55;;;;;;;3.70;2.15;;;17.90;99.90;;;;;;4994184;28;20313;-64
2023/10/18 11:58:32;;;;;;;3.00;2.40;;;17.90;99.90;;;;;;4999533;28;20206;-64
2023/10/18 12:01:00;;;;;;;2.50;2.08;;;18.00;99.90;;;;;;4990466;28;20179;-64
2023/10/18 12:03:29;;;;;;;4.97;2.58;;;18.10;99.90;;;;;;5001522;28;20253;-64
2023/10/18 12:05:57;;;;;;;3.13;1.90;;;18.20;99.90;;;;;;5001675;28;20175;-65
2023/10/18 12:08:30;;;;;;;4.90;2.58;;;18.30;99.90;;;;;;4997732;28;20428;-64
2023/10/18 12:11:00;;;;;;;3.08;2.20;;;18.40;99.90;;;;;;4996129;28;20191;-64
2023/10/18 12:13:28;;;;;;;3.25;2.40;;;18.60;99.90;;;;;;4982535;28;20171;-64
2023/10/18 12:15:53;;;;;;;3.92;2.28;;;18.70;99.90;;;;;;4998439;28;20194;-64
2023/10/18 12:18:25;;;;;;;2.45;1.90;;;18.80;99.90;;;;;;5001688;28;20199;-64
2023/10/18 12:20:54;;;;;;;4.53;2.40;;;18.90;99.90;;;;;;4999205;28;20166;-64
2023/10/18 12:23:22;;;;;;;4.03;2.50;;;18.90;99.90;;;;;;4982189;28;20261;-64
2023/10/18 12:25:51;;;;;;;4.15;1.92;;;19.00;99.90;;;;;;4982034;28;20182;-64
2023/10/18 12:28:27;;;;;;;5.45;2.55;;;19.10;99.90;;;;;;4982316;28;20206;-65
2023/10/18 12:30:55;;;;;;;2.88;1.90;;;19.20;99.90;;;;;;4989444;28;20224;-65
2023/10/18 12:33:25;;;;;;;3.78;2.20;;;19.20;99.90;;;;;;4985415;28;20179;-65
2023/10/18 12:35:51;;;;;;;4.20;2.00;;;19.20;99.90;;;;;;4990578;28;20278;-65
2023/10/18 12:38:31;;;;;;;3.92;2.28;;;19.10;99.90;;;;;;5001477;28;20225;-64
2023/10/18 12:41:01;;;;;;;3.60;2.00;;;19.10;99.90;;;;;;4986017;28;20298;-64
2023/10/18 12:43:31;;;;;;;3.53;1.95;;;18.90;99.90;;;;;;4981824;28;20299;-65
2023/10/18 12:45:57;;;;;;;3.00;2.03;;;18.90;99.90;;;;;;4998272;28;20245;-64
2023/10/18 12:48:27;;;;;;;2.78;1.92;;;18.80;99.90;;;;;;4999856;28;20170;-64
2023/10/18 12:50:54;;;;;;;2.85;1.80;;;18.80;99.90;;;;;;5001161;28;20167;-65
2023/10/18 12:55:59;;;;;;;3.45;2.03;;;18.60;99.90;;;;;;5018055;28;20266;-66
2023/10/18 12:58:31;;;;;;;3.45;2.17;;;18.60;99.90;;;;;;4996125;28;20174;-66
2023/10/18 13:01:12;;;;;;;4.32;2.10;;;18.50;99.90;;;;;;5000149;28;20194;-65
2023/10/18 13:03:43;;;;;;;2.50;1.95;;;18.30;99.90;;;;;;4988770;28;20198;-64
2023/10/18 13:06:15;;;;;;;4.03;2.00;;;18.20;99.90;;;;;;5000598;28;20240;-65
2023/10/18 13:08:55;;;;;;;4.30;2.42;;;18.10;99.90;;;;;;4994079;28;20175;-64
2023/10/18 13:14:31;;;;;;;4.38;2.30;;;17.90;99.90;;;;;;5000935;28;20168;-66
2023/10/18 13:17:12;;;;;;;3.10;2.00;;;17.80;99.90;;;;;;4988337;28;20175;-65
2023/10/18 13:19:44;;;;;;;3.83;2.20;;;17.70;99.90;;;;;;4981055;28;20245;-65
2023/10/18 13:22:17;;;;;;;3.22;2.20;;;17.70;99.90;;;;;;4995729;28;20202;-66
2023/10/18 13:24:43;;;;;;;3.95;2.10;;;17.70;99.90;;;;;;5000098;28;20233;-64
2023/10/18 13:27:09;;;;;;;3.33;2.28;;;17.70;99.90;;;;;;5000579;28;20183;-65
2023/10/18 13:29:35;;;;;;;3.65;1.95;;;17.70;99.90;;;;;;4999154;28;20174;-65
2023/10/18 13:32:10;;;;;;;5.03;2.30;;;17.70;99.90;;;;;;4999688;28;20210;-64
2023/10/18 13:34:43;;;;;;;3.17;2.25;;;17.70;99.90;;;;;;4981126;28;20179;-64
2023/10/18 13:37:12;;;;;;;2.50;1.95;;;17.70;99.90;;;;;;4998461;28;20193;-64
2023/10/18 13:39:39;;;;;;;3.28;2.10;;;17.60;99.90;;;;;;4989117;28;20183;-65
2023/10/18 13:42:05;;;;;;;2.88;2.20;;;17.60;99.90;;;;;;5000176;28;20190;-65
2023/10/18 13:44:31;;;;;;;3.33;2.00;;;17.60;99.90;;;;;;4987339;28;20203;-65
2023/10/18 13:47:00;;;;;;;3.92;1.80;;;17.60;99.90;;;;;;4997871;28;20191;-65
2023/10/18 13:49:26;;;;;;;3.28;2.08;;;17.60;99.90;;;;;;4999845;28;20236;-65
2023/10/18 13:51:55;;;;;;;4.30;2.05;;;17.60;99.90;;;;;;4988494;28;20191;-65
2023/10/18 13:54:24;;;;;;;2.30;1.90;;;17.70;99.90;;;;;;5011932;28;20232;-65
2023/10/18 13:56:54;;;;;;;2.42;1.88;;;17.80;99.90;;;;;;4999234;28;20293;-65
2023/10/18 13:59:20;;;;;;;3.25;2.10;;;17.80;99.90;;;;;;4997363;28;20253;-65
2023/10/18 14:01:54;;;;;;;3.03;1.98;;;17.80;99.90;;;;;;4987656;28;20305;-64
2023/10/18 14:04:25;;;;;;;2.08;1.70;;;17.80;99.90;;;;;;5001965;28;20252;-65
2023/10/18 14:06:53;;;;;;;2.72;1.92;;;17.80;99.90;;;;;;5007856;28;20628;-64
2023/10/18 14:09:22;;;;;;;2.50;1.80;;;17.70;99.90;;;;;;4996230;28;20199;-64